sensor_id;sensor_type;location;lat;lon;timestamp;P1;durP1;ratioP1;P2;durP2;ratioP2
11924;SDS011;6022;48.768;18.608;2023-08-06T00:00:40;7.37;;;5.70;;
11924;SDS011;6022;48.768;18.608;2023-08-06T00:03:08;10.63;;;5.87;;
11924;SDS011;6022;48.768;18.608;2023-08-06T00:05:35;9.33;;;6.70;;
11924;SDS011;6022;48.768;18.608;2023-08-06T00:08:02;8.63;;;5.87;;
11924;SDS011;6022;48.768;18.608;2023-08-06T00:10:29;8.17;;;5.90;;
11924;SDS011;6022;48.768;18.608;2023-08-06T00:12:56;10.00;;;5.57;;
11924;SDS011;6022;48.768;18.608;2023-08-06T00:15:24;7.67;;;5.80;;
11924;SDS011;6022;48.768;18.608;2023-08-06T00:17:51;8.10;;;5.70;;
11924;SDS011;6022;48.768;18.608;2023-08-06T00:20:18;9.33;;;6.10;;
11924;SDS011;6022;48.768;18.608;2023-08-06T00:22:45;7.80;;;5.50;;
11924;SDS011;6022;48.768;18.608;2023-08-06T00:25:12;7.43;;;5.80;;
11924;SDS011;6022;48.768;18.608;2023-08-06T00:27:39;9.00;;;5.93;;
11924;SDS011;6022;48.768;18.608;2023-08-06T00:30:06;10.07;;;5.90;;
11924;SDS011;6022;48.768;18.608;2023-08-06T00:32:34;8.37;;;5.97;;
11924;SDS011;6022;48.768;18.608;2023-08-06T00:35:01;9.73;;;5.87;;
11924;SDS011;6022;48.768;18.608;2023-08-06T00:37:28;9.40;;;6.30;;
11924;SDS011;6022;48.768;18.608;2023-08-06T00:39:55;7.43;;;5.53;;
11924;SDS011;6022;48.768;18.608;2023-08-06T00:42:22;9.80;;;6.20;;
11924;SDS011;6022;48.768;18.608;2023-08-06T00:44:49;9.33;;;6.50;;
11924;SDS011;6022;48.768;18.608;2023-08-06T00:47:16;6.30;;;4.97;;
11924;SDS011;6022;48.768;18.608;2023-08-06T00:49:44;6.90;;;5.40;;
11924;SDS011;6022;48.768;18.608;2023-08-06T00:52:11;6.93;;;5.20;;
11924;SDS011;6022;48.768;18.608;2023-08-06T00:54:40;12.13;;;7.50;;
11924;SDS011;6022;48.768;18.608;2023-08-06T00:57:08;14.27;;;6.00;;
11924;SDS011;6022;48.768;18.608;2023-08-06T00:59:37;8.87;;;6.43;;
11924;SDS011;6022;48.768;18.608;2023-08-06T01:02:04;7.10;;;5.30;;
11924;SDS011;6022;48.768;18.608;2023-08-06T01:04:32;6.57;;;5.37;;
11924;SDS011;6022;48.768;18.608;2023-08-06T01:12:45;4.90;;;3.83;;
11924;SDS011;6022;48.768;18.608;2023-08-06T01:15:31;4.93;;;3.97;;
11924;SDS011;6022;48.768;18.608;2023-08-06T01:18:08;4.10;;;3.67;;
11924;SDS011;6022;48.768;18.608;2023-08-06T01:20:36;5.10;;;3.80;;
11924;SDS011;6022;48.768;18.608;2023-08-06T01:23:03;4.47;;;3.40;;
11924;SDS011;6022;48.768;18.608;2023-08-06T01:25:34;6.77;;;5.20;;
11924;SDS011;6022;48.768;18.608;2023-08-06T01:31:14;7.20;;;4.50;;
11924;SDS011;6022;48.768;18.608;2023-08-06T01:34:01;6.83;;;4.13;;
11924;SDS011;6022;48.768;18.608;2023-08-06T01:36:32;5.97;;;4.43;;
11924;SDS011;6022;48.768;18.608;2023-08-06T01:39:00;5.47;;;4.33;;
11924;SDS011;6022;48.768;18.608;2023-08-06T01:41:27;5.33;;;4.37;;
11924;SDS011;6022;48.768;18.608;2023-08-06T01:43:54;7.80;;;4.87;;
11924;SDS011;6022;48.768;18.608;2023-08-06T01:46:21;9.07;;;4.80;;
11924;SDS011;6022;48.768;18.608;2023-08-06T01:48:49;5.27;;;3.90;;
11924;SDS011;6022;48.768;18.608;2023-08-06T01:51:16;5.77;;;4.17;;
11924;SDS011;6022;48.768;18.608;2023-08-06T01:53:43;6.53;;;4.60;;
11924;SDS011;6022;48.768;18.608;2023-08-06T01:56:10;6.80;;;4.93;;
11924;SDS011;6022;48.768;18.608;2023-08-06T01:58:37;5.97;;;4.50;;
11924;SDS011;6022;48.768;18.608;2023-08-06T02:01:04;4.80;;;3.93;;
11924;SDS011;6022;48.768;18.608;2023-08-06T02:03:31;6.33;;;4.70;;
11924;SDS011;6022;48.768;18.608;2023-08-06T02:05:58;7.83;;;4.23;;
11924;SDS011;6022;48.768;18.608;2023-08-06T02:08:26;7.20;;;5.53;;
11924;SDS011;6022;48.768;18.608;2023-08-06T02:10:53;6.43;;;4.23;;
11924;SDS011;6022;48.768;18.608;2023-08-06T02:13:21;5.33;;;4.30;;
11924;SDS011;6022;48.768;18.608;2023-08-06T02:15:48;7.17;;;4.97;;
11924;SDS011;6022;48.768;18.608;2023-08-06T02:18:15;6.00;;;4.70;;
11924;SDS011;6022;48.768;18.608;2023-08-06T02:20:42;6.97;;;5.13;;
11924;SDS011;6022;48.768;18.608;2023-08-06T02:23:09;5.63;;;4.10;;
11924;SDS011;6022;48.768;18.608;2023-08-06T02:25:37;6.30;;;4.63;;
11924;SDS011;6022;48.768;18.608;2023-08-06T02:28:04;5.30;;;3.77;;
11924;SDS011;6022;48.768;18.608;2023-08-06T02:30:31;9.70;;;6.27;;
11924;SDS011;6022;48.768;18.608;2023-08-06T02:32:58;6.50;;;4.40;;
11924;SDS011;6022;48.768;18.608;2023-08-06T02:35:25;7.33;;;4.87;;
11924;SDS011;6022;48.768;18.608;2023-08-06T02:37:52;6.40;;;4.43;;
11924;SDS011;6022;48.768;18.608;2023-08-06T02:40:19;7.90;;;5.07;;
11924;SDS011;6022;48.768;18.608;2023-08-06T02:42:47;5.07;;;4.00;;
11924;SDS011;6022;48.768;18.608;2023-08-06T02:45:14;7.13;;;4.80;;
11924;SDS011;6022;48.768;18.608;2023-08-06T02:47:41;4.53;;;3.97;;
11924;SDS011;6022;48.768;18.608;2023-08-06T02:50:08;9.10;;;5.53;;
11924;SDS011;6022;48.768;18.608;2023-08-06T02:52:35;8.17;;;5.17;;
11924;SDS011;6022;48.768;18.608;2023-08-06T02:55:05;8.67;;;5.37;;
11924;SDS011;6022;48.768;18.608;2023-08-06T02:57:33;6.30;;;4.93;;
11924;SDS011;6022;48.768;18.608;2023-08-06T03:00:00;4.23;;;3.80;;
11924;SDS011;6022;48.768;18.608;2023-08-06T03:02:28;7.20;;;5.00;;
11924;SDS011;6022;48.768;18.608;2023-08-06T03:04:55;8.97;;;5.23;;
11924;SDS011;6022;48.768;18.608;2023-08-06T03:07:23;6.57;;;4.60;;
11924;SDS011;6022;48.768;18.608;2023-08-06T03:09:52;7.77;;;5.03;;
11924;SDS011;6022;48.768;18.608;2023-08-06T03:12:21;4.97;;;4.47;;
11924;SDS011;6022;48.768;18.608;2023-08-06T03:14:48;6.43;;;4.37;;
11924;SDS011;6022;48.768;18.608;2023-08-06T03:17:16;6.67;;;5.43;;
11924;SDS011;6022;48.768;18.608;2023-08-06T03:19:43;8.03;;;4.63;;
11924;SDS011;6022;48.768;18.608;2023-08-06T03:22:10;10.30;;;5.13;;
11924;SDS011;6022;48.768;18.608;2023-08-06T03:24:37;5.90;;;4.20;;
11924;SDS011;6022;48.768;18.608;2023-08-06T03:27:05;5.43;;;4.87;;
11924;SDS011;6022;48.768;18.608;2023-08-06T03:29:32;8.47;;;5.23;;
11924;SDS011;6022;48.768;18.608;2023-08-06T03:31:59;5.13;;;4.20;;
11924;SDS011;6022;48.768;18.608;2023-08-06T03:34:26;7.67;;;4.47;;
11924;SDS011;6022;48.768;18.608;2023-08-06T03:36:54;4.53;;;3.60;;
11924;SDS011;6022;48.768;18.608;2023-08-06T03:39:21;5.27;;;4.13;;
11924;SDS011;6022;48.768;18.608;2023-08-06T03:41:48;4.27;;;3.53;;
11924;SDS011;6022;48.768;18.608;2023-08-06T03:44:16;6.87;;;4.53;;
11924;SDS011;6022;48.768;18.608;2023-08-06T03:46:43;6.13;;;3.43;;
11924;SDS011;6022;48.768;18.608;2023-08-06T03:49:12;4.77;;;4.07;;
11924;SDS011;6022;48.768;18.608;2023-08-06T03:51:39;6.30;;;4.13;;
11924;SDS011;6022;48.768;18.608;2023-08-06T03:54:06;6.67;;;3.57;;
11924;SDS011;6022;48.768;18.608;2023-08-06T03:56:33;6.83;;;3.60;;
11924;SDS011;6022;48.768;18.608;2023-08-06T03:59:01;7.13;;;4.00;;
11924;SDS011;6022;48.768;18.608;2023-08-06T04:30:28;3.23;;;2.30;;
11924;SDS011;6022;48.768;18.608;2023-08-06T04:33:14;5.00;;;2.90;;
11924;SDS011;6022;48.768;18.608;2023-08-06T04:35:56;4.37;;;2.93;;
11924;SDS011;6022;48.768;18.608;2023-08-06T04:38:24;3.27;;;2.70;;
11924;SDS011;6022;48.768;18.608;2023-08-06T04:41:19;2.67;;;2.47;;
11924;SDS011;6022;48.768;18.608;2023-08-06T04:43:52;3.00;;;2.53;;
11924;SDS011;6022;48.768;18.608;2023-08-06T04:46:20;2.77;;;2.50;;
11924;SDS011;6022;48.768;18.608;2023-08-06T04:51:49;3.40;;;2.30;;
11924;SDS011;6022;48.768;18.608;2023-08-06T04:54:23;2.60;;;1.77;;
11924;SDS011;6022;48.768;18.608;2023-08-06T04:56:53;2.23;;;1.63;;
11924;SDS011;6022;48.768;18.608;2023-08-06T04:59:25;2.00;;;1.90;;
11924;SDS011;6022;48.768;18.608;2023-08-06T05:01:52;2.87;;;1.97;;
11924;SDS011;6022;48.768;18.608;2023-08-06T05:04:20;2.67;;;1.83;;
11924;SDS011;6022;48.768;18.608;2023-08-06T05:06:52;1.40;;;1.30;;
11924;SDS011;6022;48.768;18.608;2023-08-06T05:09:19;1.17;;;1.10;;
11924;SDS011;6022;48.768;18.608;2023-08-06T05:11:47;1.30;;;1.20;;
11924;SDS011;6022;48.768;18.608;2023-08-06T05:14:14;1.07;;;0.87;;
11924;SDS011;6022;48.768;18.608;2023-08-06T05:16:41;1.20;;;1.10;;
11924;SDS011;6022;48.768;18.608;2023-08-06T05:19:08;0.70;;;0.70;;
11924;SDS011;6022;48.768;18.608;2023-08-06T05:21:36;0.83;;;0.83;;
11924;SDS011;6022;48.768;18.608;2023-08-06T05:24:03;0.93;;;0.80;;
11924;SDS011;6022;48.768;18.608;2023-08-06T05:26:30;0.97;;;0.97;;
11924;SDS011;6022;48.768;18.608;2023-08-06T05:28:57;1.07;;;0.97;;
11924;SDS011;6022;48.768;18.608;2023-08-06T05:31:26;0.73;;;0.50;;
11924;SDS011;6022;48.768;18.608;2023-08-06T05:33:55;0.70;;;0.70;;
11924;SDS011;6022;48.768;18.608;2023-08-06T05:36:25;0.80;;;0.80;;
11924;SDS011;6022;48.768;18.608;2023-08-06T05:38:55;0.33;;;0.33;;
11924;SDS011;6022;48.768;18.608;2023-08-06T05:41:22;1.00;;;0.80;;
11924;SDS011;6022;48.768;18.608;2023-08-06T05:43:49;0.73;;;0.57;;
11924;SDS011;6022;48.768;18.608;2023-08-06T05:46:16;0.80;;;0.70;;
11924;SDS011;6022;48.768;18.608;2023-08-06T05:48:43;0.37;;;0.30;;
11924;SDS011;6022;48.768;18.608;2023-08-06T05:51:11;0.63;;;0.50;;
11924;SDS011;6022;48.768;18.608;2023-08-06T05:53:39;0.53;;;0.53;;
11924;SDS011;6022;48.768;18.608;2023-08-06T05:56:06;0.50;;;0.50;;
11924;SDS011;6022;48.768;18.608;2023-08-06T05:58:34;0.63;;;0.60;;
11924;SDS011;6022;48.768;18.608;2023-08-06T06:01:03;0.60;;;0.53;;
11924;SDS011;6022;48.768;18.608;2023-08-06T06:03:31;0.40;;;0.40;;
11924;SDS011;6022;48.768;18.608;2023-08-06T06:05:58;0.70;;;0.50;;
11924;SDS011;6022;48.768;18.608;2023-08-06T06:08:27;0.97;;;0.53;;
11924;SDS011;6022;48.768;18.608;2023-08-06T06:10:54;1.07;;;0.70;;
11924;SDS011;6022;48.768;18.608;2023-08-06T06:13:22;5.53;;;1.00;;
11924;SDS011;6022;48.768;18.608;2023-08-06T06:15:49;2.57;;;0.70;;
11924;SDS011;6022;48.768;18.608;2023-08-06T06:18:16;0.50;;;0.50;;
11924;SDS011;6022;48.768;18.608;2023-08-06T06:20:43;0.57;;;0.40;;
11924;SDS011;6022;48.768;18.608;2023-08-06T06:23:11;0.37;;;0.30;;
11924;SDS011;6022;48.768;18.608;2023-08-06T06:25:42;0.30;;;0.30;;
11924;SDS011;6022;48.768;18.608;2023-08-06T06:28:10;0.50;;;0.40;;
11924;SDS011;6022;48.768;18.608;2023-08-06T06:30:37;0.10;;;0.10;;
11924;SDS011;6022;48.768;18.608;2023-08-06T06:33:04;0.50;;;0.43;;
11924;SDS011;6022;48.768;18.608;2023-08-06T06:35:31;1.07;;;0.40;;
11924;SDS011;6022;48.768;18.608;2023-08-06T06:37:58;0.30;;;0.30;;
11924;SDS011;6022;48.768;18.608;2023-08-06T06:40:26;0.10;;;0.10;;
11924;SDS011;6022;48.768;18.608;2023-08-06T06:42:54;0.27;;;0.27;;
11924;SDS011;6022;48.768;18.608;2023-08-06T06:45:21;2.40;;;1.77;;
11924;SDS011;6022;48.768;18.608;2023-08-06T06:47:48;0.60;;;0.60;;
11924;SDS011;6022;48.768;18.608;2023-08-06T06:50:15;0.10;;;0.10;;
11924;SDS011;6022;48.768;18.608;2023-08-06T06:52:42;0.17;;;0.17;;
11924;SDS011;6022;48.768;18.608;2023-08-06T06:55:10;0.00;;;0.00;;
11924;SDS011;6022;48.768;18.608;2023-08-06T06:57:38;0.13;;;0.13;;
11924;SDS011;6022;48.768;18.608;2023-08-06T07:00:06;0.10;;;0.10;;
11924;SDS011;6022;48.768;18.608;2023-08-06T07:02:33;0.40;;;0.40;;
11924;SDS011;6022;48.768;18.608;2023-08-06T07:05:01;0.27;;;0.23;;
11924;SDS011;6022;48.768;18.608;2023-08-06T07:07:28;0.10;;;0.10;;
11924;SDS011;6022;48.768;18.608;2023-08-06T07:09:55;0.00;;;0.00;;
11924;SDS011;6022;48.768;18.608;2023-08-06T07:12:23;0.00;;;0.00;;
11924;SDS011;6022;48.768;18.608;2023-08-06T07:14:50;0.00;;;0.00;;
11924;SDS011;6022;48.768;18.608;2023-08-06T07:17:17;0.20;;;0.20;;
11924;SDS011;6022;48.768;18.608;2023-08-06T07:19:44;0.00;;;0.00;;
11924;SDS011;6022;48.768;18.608;2023-08-06T07:22:11;0.17;;;0.17;;
11924;SDS011;6022;48.768;18.608;2023-08-06T07:24:38;0.10;;;0.10;;
11924;SDS011;6022;48.768;18.608;2023-08-06T07:27:05;0.10;;;0.10;;
11924;SDS011;6022;48.768;18.608;2023-08-06T07:29:33;0.00;;;0.00;;
11924;SDS011;6022;48.768;18.608;2023-08-06T07:32:00;0.10;;;0.10;;
11924;SDS011;6022;48.768;18.608;2023-08-06T07:34:28;0.10;;;0.10;;
11924;SDS011;6022;48.768;18.608;2023-08-06T07:36:55;0.20;;;0.20;;
11924;SDS011;6022;48.768;18.608;2023-08-06T07:39:22;1.60;;;0.70;;
11924;SDS011;6022;48.768;18.608;2023-08-06T07:41:50;0.10;;;0.10;;
11924;SDS011;6022;48.768;18.608;2023-08-06T07:44:20;0.03;;;0.03;;
11924;SDS011;6022;48.768;18.608;2023-08-06T07:46:53;0.17;;;0.17;;
11924;SDS011;6022;48.768;18.608;2023-08-06T07:49:35;0.33;;;0.20;;
11924;SDS011;6022;48.768;18.608;2023-08-06T07:52:03;0.10;;;0.10;;
11924;SDS011;6022;48.768;18.608;2023-08-06T07:54:30;0.47;;;0.10;;
11924;SDS011;6022;48.768;18.608;2023-08-06T07:57:00;1.00;;;0.30;;
11924;SDS011;6022;48.768;18.608;2023-08-06T07:59:37;3.60;;;0.13;;
11924;SDS011;6022;48.768;18.608;2023-08-06T08:02:10;0.33;;;0.33;;
11924;SDS011;6022;48.768;18.608;2023-08-06T08:04:38;0.00;;;0.00;;
11924;SDS011;6022;48.768;18.608;2023-08-06T08:07:05;0.10;;;0.10;;
11924;SDS011;6022;48.768;18.608;2023-08-06T08:09:34;1.07;;;0.33;;
11924;SDS011;6022;48.768;18.608;2023-08-06T08:12:02;0.03;;;0.03;;
11924;SDS011;6022;48.768;18.608;2023-08-06T08:14:29;0.63;;;0.20;;
11924;SDS011;6022;48.768;18.608;2023-08-06T08:17:02;0.00;;;0.00;;
11924;SDS011;6022;48.768;18.608;2023-08-06T08:19:31;0.10;;;0.10;;
11924;SDS011;6022;48.768;18.608;2023-08-06T08:21:59;0.00;;;0.00;;
11924;SDS011;6022;48.768;18.608;2023-08-06T08:24:26;0.00;;;0.00;;
11924;SDS011;6022;48.768;18.608;2023-08-06T08:26:54;0.53;;;0.30;;
11924;SDS011;6022;48.768;18.608;2023-08-06T08:29:21;0.10;;;0.10;;
11924;SDS011;6022;48.768;18.608;2023-08-06T08:31:56;0.23;;;0.10;;
11924;SDS011;6022;48.768;18.608;2023-08-06T08:34:24;0.20;;;0.20;;
11924;SDS011;6022;48.768;18.608;2023-08-06T08:36:51;0.10;;;0.10;;
11924;SDS011;6022;48.768;18.608;2023-08-06T08:39:25;0.10;;;0.10;;
11924;SDS011;6022;48.768;18.608;2023-08-06T08:41:55;0.27;;;0.20;;
11924;SDS011;6022;48.768;18.608;2023-08-06T08:44:39;0.47;;;0.17;;
11924;SDS011;6022;48.768;18.608;2023-08-06T08:47:37;0.13;;;0.00;;
11924;SDS011;6022;48.768;18.608;2023-08-06T08:50:14;0.00;;;0.00;;
11924;SDS011;6022;48.768;18.608;2023-08-06T08:52:46;0.10;;;0.10;;
11924;SDS011;6022;48.768;18.608;2023-08-06T08:55:16;0.10;;;0.10;;
11924;SDS011;6022;48.768;18.608;2023-08-06T08:57:50;0.20;;;0.07;;
11924;SDS011;6022;48.768;18.608;2023-08-06T09:00:17;0.33;;;0.10;;
11924;SDS011;6022;48.768;18.608;2023-08-06T09:02:45;0.00;;;0.00;;
11924;SDS011;6022;48.768;18.608;2023-08-06T09:05:19;0.23;;;0.20;;
11924;SDS011;6022;48.768;18.608;2023-08-06T09:07:49;0.00;;;0.00;;
11924;SDS011;6022;48.768;18.608;2023-08-06T09:10:21;0.10;;;0.10;;
11924;SDS011;6022;48.768;18.608;2023-08-06T09:12:51;0.13;;;0.13;;
11924;SDS011;6022;48.768;18.608;2023-08-06T09:15:25;0.63;;;0.23;;
11924;SDS011;6022;48.768;18.608;2023-08-06T09:17:53;0.47;;;0.27;;
11924;SDS011;6022;48.768;18.608;2023-08-06T09:20:21;0.87;;;0.10;;
11924;SDS011;6022;48.768;18.608;2023-08-06T09:22:48;0.20;;;0.20;;
11924;SDS011;6022;48.768;18.608;2023-08-06T09:25:22;0.00;;;0.00;;
11924;SDS011;6022;48.768;18.608;2023-08-06T09:27:51;0.63;;;0.07;;
11924;SDS011;6022;48.768;18.608;2023-08-06T09:30:29;0.00;;;0.00;;
11924;SDS011;6022;48.768;18.608;2023-08-06T09:33:01;0.00;;;0.00;;
11924;SDS011;6022;48.768;18.608;2023-08-06T09:35:30;0.10;;;0.10;;
11924;SDS011;6022;48.768;18.608;2023-08-06T09:38:07;0.10;;;0.10;;
11924;SDS011;6022;48.768;18.608;2023-08-06T09:40:39;0.00;;;0.00;;
11924;SDS011;6022;48.768;18.608;2023-08-06T09:43:07;0.00;;;0.00;;
11924;SDS011;6022;48.768;18.608;2023-08-06T09:45:35;0.00;;;0.00;;
11924;SDS011;6022;48.768;18.608;2023-08-06T09:48:04;0.20;;;0.10;;
11924;SDS011;6022;48.768;18.608;2023-08-06T09:50:35;0.00;;;0.00;;
11924;SDS011;6022;48.768;18.608;2023-08-06T09:53:06;0.00;;;0.00;;
11924;SDS011;6022;48.768;18.608;2023-08-06T09:55:35;0.10;;;0.10;;
11924;SDS011;6022;48.768;18.608;2023-08-06T09:58:02;0.10;;;0.10;;
11924;SDS011;6022;48.768;18.608;2023-08-06T10:00:32;1.67;;;0.10;;
11924;SDS011;6022;48.768;18.608;2023-08-06T10:03:04;0.30;;;0.13;;
11924;SDS011;6022;48.768;18.608;2023-08-06T10:05:35;0.50;;;0.50;;
11924;SDS011;6022;48.768;18.608;2023-08-06T10:08:05;0.20;;;0.20;;
11924;SDS011;6022;48.768;18.608;2023-08-06T10:10:35;0.57;;;0.57;;
11924;SDS011;6022;48.768;18.608;2023-08-06T10:13:03;0.00;;;0.00;;
11924;SDS011;6022;48.768;18.608;2023-08-06T10:15:33;0.00;;;0.00;;
11924;SDS011;6022;48.768;18.608;2023-08-06T10:18:02;1.30;;;0.20;;
11924;SDS011;6022;48.768;18.608;2023-08-06T10:20:33;0.00;;;0.00;;
11924;SDS011;6022;48.768;18.608;2023-08-06T10:23:02;0.10;;;0.10;;
11924;SDS011;6022;48.768;18.608;2023-08-06T10:25:31;0.00;;;0.00;;
11924;SDS011;6022;48.768;18.608;2023-08-06T10:28:06;0.23;;;0.10;;
11924;SDS011;6022;48.768;18.608;2023-08-06T10:30:42;0.20;;;0.20;;
11924;SDS011;6022;48.768;18.608;2023-08-06T10:33:14;0.00;;;0.00;;
11924;SDS011;6022;48.768;18.608;2023-08-06T10:35:43;0.00;;;0.00;;
11924;SDS011;6022;48.768;18.608;2023-08-06T10:38:22;0.27;;;0.10;;
11924;SDS011;6022;48.768;18.608;2023-08-06T10:46:02;0.43;;;0.23;;
11924;SDS011;6022;48.768;18.608;2023-08-06T10:48:36;0.63;;;0.27;;
11924;SDS011;6022;48.768;18.608;2023-08-06T10:51:10;0.23;;;0.20;;
11924;SDS011;6022;48.768;18.608;2023-08-06T10:53:42;2.33;;;0.10;;
11924;SDS011;6022;48.768;18.608;2023-08-06T10:56:15;0.20;;;0.20;;
11924;SDS011;6022;48.768;18.608;2023-08-06T10:58:45;0.60;;;0.53;;
11924;SDS011;6022;48.768;18.608;2023-08-06T11:01:13;0.00;;;0.00;;
11924;SDS011;6022;48.768;18.608;2023-08-06T11:03:45;0.40;;;0.10;;
11924;SDS011;6022;48.768;18.608;2023-08-06T11:06:21;0.00;;;0.00;;
11924;SDS011;6022;48.768;18.608;2023-08-06T11:08:50;0.00;;;0.00;;
11924;SDS011;6022;48.768;18.608;2023-08-06T11:11:22;0.10;;;0.00;;
11924;SDS011;6022;48.768;18.608;2023-08-06T11:13:50;0.13;;;0.07;;
11924;SDS011;6022;48.768;18.608;2023-08-06T11:16:19;0.00;;;0.00;;
11924;SDS011;6022;48.768;18.608;2023-08-06T11:18:53;0.00;;;0.00;;
11924;SDS011;6022;48.768;18.608;2023-08-06T11:21:27;0.00;;;0.00;;
11924;SDS011;6022;48.768;18.608;2023-08-06T11:23:56;0.10;;;0.10;;
11924;SDS011;6022;48.768;18.608;2023-08-06T11:26:30;0.10;;;0.10;;
11924;SDS011;6022;48.768;18.608;2023-08-06T11:28:57;0.00;;;0.00;;
11924;SDS011;6022;48.768;18.608;2023-08-06T11:31:38;7.57;;;0.50;;
11924;SDS011;6022;48.768;18.608;2023-08-06T11:34:07;0.00;;;0.00;;
11924;SDS011;6022;48.768;18.608;2023-08-06T11:36:40;0.00;;;0.00;;
11924;SDS011;6022;48.768;18.608;2023-08-06T11:39:10;0.00;;;0.00;;
11924;SDS011;6022;48.768;18.608;2023-08-06T11:41:38;0.00;;;0.00;;
11924;SDS011;6022;48.768;18.608;2023-08-06T11:44:06;0.20;;;0.10;;
11924;SDS011;6022;48.768;18.608;2023-08-06T11:51:15;0.00;;;0.00;;
11924;SDS011;6022;48.768;18.608;2023-08-06T11:53:51;0.10;;;0.10;;
11924;SDS011;6022;48.768;18.608;2023-08-06T11:56:23;0.00;;;0.00;;
11924;SDS011;6022;48.768;18.608;2023-08-06T11:58:56;0.83;;;0.20;;
11924;SDS011;6022;48.768;18.608;2023-08-06T12:01:29;0.10;;;0.10;;
11924;SDS011;6022;48.768;18.608;2023-08-06T12:04:05;0.00;;;0.00;;
11924;SDS011;6022;48.768;18.608;2023-08-06T12:06:43;0.00;;;0.00;;
11924;SDS011;6022;48.768;18.608;2023-08-06T12:09:13;0.50;;;0.30;;
11924;SDS011;6022;48.768;18.608;2023-08-06T12:11:43;0.50;;;0.30;;
11924;SDS011;6022;48.768;18.608;2023-08-06T12:14:36;0.20;;;0.10;;
11924;SDS011;6022;48.768;18.608;2023-08-06T12:17:06;0.67;;;0.20;;
11924;SDS011;6022;48.768;18.608;2023-08-06T12:19:45;0.30;;;0.13;;
11924;SDS011;6022;48.768;18.608;2023-08-06T12:22:41;0.30;;;0.10;;
11924;SDS011;6022;48.768;18.608;2023-08-06T12:25:12;0.13;;;0.13;;
11924;SDS011;6022;48.768;18.608;2023-08-06T12:28:23;0.00;;;0.00;;
11924;SDS011;6022;48.768;18.608;2023-08-06T12:30:57;0.00;;;0.00;;
11924;SDS011;6022;48.768;18.608;2023-08-06T12:33:25;0.00;;;0.00;;
11924;SDS011;6022;48.768;18.608;2023-08-06T12:35:58;0.00;;;0.00;;
11924;SDS011;6022;48.768;18.608;2023-08-06T12:38:30;0.00;;;0.00;;
11924;SDS011;6022;48.768;18.608;2023-08-06T12:41:00;0.00;;;0.00;;
11924;SDS011;6022;48.768;18.608;2023-08-06T12:44:02;0.97;;;0.60;;
11924;SDS011;6022;48.768;18.608;2023-08-06T12:46:30;0.13;;;0.13;;
11924;SDS011;6022;48.768;18.608;2023-08-06T12:49:00;0.00;;;0.00;;
11924;SDS011;6022;48.768;18.608;2023-08-06T12:51:31;0.00;;;0.00;;
11924;SDS011;6022;48.768;18.608;2023-08-06T12:54:00;0.00;;;0.00;;
11924;SDS011;6022;48.768;18.608;2023-08-06T12:56:34;0.03;;;0.03;;
11924;SDS011;6022;48.768;18.608;2023-08-06T12:59:36;0.00;;;0.00;;
11924;SDS011;6022;48.768;18.608;2023-08-06T13:02:06;0.00;;;0.00;;
11924;SDS011;6022;48.768;18.608;2023-08-06T13:04:34;0.03;;;0.03;;
11924;SDS011;6022;48.768;18.608;2023-08-06T13:07:02;0.03;;;0.03;;
11924;SDS011;6022;48.768;18.608;2023-08-06T13:09:50;0.00;;;0.00;;
11924;SDS011;6022;48.768;18.608;2023-08-06T13:12:20;0.00;;;0.00;;
11924;SDS011;6022;48.768;18.608;2023-08-06T13:14:59;0.00;;;0.00;;
11924;SDS011;6022;48.768;18.608;2023-08-06T13:17:27;0.00;;;0.00;;
11924;SDS011;6022;48.768;18.608;2023-08-06T13:19:58;0.40;;;0.30;;
11924;SDS011;6022;48.768;18.608;2023-08-06T13:22:25;0.00;;;0.00;;
11924;SDS011;6022;48.768;18.608;2023-08-06T13:24:53;0.03;;;0.03;;
11924;SDS011;6022;48.768;18.608;2023-08-06T13:27:23;0.00;;;0.00;;
11924;SDS011;6022;48.768;18.608;2023-08-06T13:29:50;0.00;;;0.00;;
11924;SDS011;6022;48.768;18.608;2023-08-06T13:32:18;0.00;;;0.00;;
11924;SDS011;6022;48.768;18.608;2023-08-06T13:34:49;0.00;;;0.00;;
11924;SDS011;6022;48.768;18.608;2023-08-06T13:37:17;0.10;;;0.00;;
11924;SDS011;6022;48.768;18.608;2023-08-06T13:39:47;0.10;;;0.00;;
11924;SDS011;6022;48.768;18.608;2023-08-06T13:42:26;0.10;;;0.10;;
11924;SDS011;6022;48.768;18.608;2023-08-06T13:44:55;0.00;;;0.00;;
11924;SDS011;6022;48.768;18.608;2023-08-06T13:47:31;0.30;;;0.10;;
11924;SDS011;6022;48.768;18.608;2023-08-06T13:49:59;7.40;;;4.83;;
11924;SDS011;6022;48.768;18.608;2023-08-06T13:52:46;1.27;;;1.17;;
11924;SDS011;6022;48.768;18.608;2023-08-06T13:55:19;3.77;;;2.53;;
11924;SDS011;6022;48.768;18.608;2023-08-06T13:57:46;0.00;;;0.00;;
11924;SDS011;6022;48.768;18.608;2023-08-06T14:00:14;0.10;;;0.10;;
11924;SDS011;6022;48.768;18.608;2023-08-06T14:02:44;0.00;;;0.00;;
11924;SDS011;6022;48.768;18.608;2023-08-06T14:05:12;0.20;;;0.20;;
11924;SDS011;6022;48.768;18.608;2023-08-06T14:07:40;0.10;;;0.10;;
11924;SDS011;6022;48.768;18.608;2023-08-06T14:10:09;0.00;;;0.00;;
11924;SDS011;6022;48.768;18.608;2023-08-06T14:12:37;0.00;;;0.00;;
11924;SDS011;6022;48.768;18.608;2023-08-06T14:15:04;0.20;;;0.13;;
11924;SDS011;6022;48.768;18.608;2023-08-06T14:17:32;0.10;;;0.10;;
11924;SDS011;6022;48.768;18.608;2023-08-06T14:20:03;0.10;;;0.10;;
11924;SDS011;6022;48.768;18.608;2023-08-06T14:22:35;0.00;;;0.00;;
11924;SDS011;6022;48.768;18.608;2023-08-06T14:25:03;0.10;;;0.10;;
11924;SDS011;6022;48.768;18.608;2023-08-06T14:27:31;0.10;;;0.10;;
11924;SDS011;6022;48.768;18.608;2023-08-06T14:30:09;0.10;;;0.10;;
11924;SDS011;6022;48.768;18.608;2023-08-06T14:32:40;0.07;;;0.07;;
11924;SDS011;6022;48.768;18.608;2023-08-06T14:35:08;0.20;;;0.20;;
11924;SDS011;6022;48.768;18.608;2023-08-06T14:37:36;0.00;;;0.00;;
11924;SDS011;6022;48.768;18.608;2023-08-06T14:40:03;0.10;;;0.10;;
11924;SDS011;6022;48.768;18.608;2023-08-06T14:42:32;0.10;;;0.10;;
11924;SDS011;6022;48.768;18.608;2023-08-06T14:45:01;0.10;;;0.10;;
11924;SDS011;6022;48.768;18.608;2023-08-06T14:47:30;0.77;;;0.63;;
11924;SDS011;6022;48.768;18.608;2023-08-06T14:49:58;0.37;;;0.10;;
11924;SDS011;6022;48.768;18.608;2023-08-06T14:52:25;0.00;;;0.00;;
11924;SDS011;6022;48.768;18.608;2023-08-06T14:54:54;0.00;;;0.00;;
11924;SDS011;6022;48.768;18.608;2023-08-06T14:57:22;0.00;;;0.00;;
11924;SDS011;6022;48.768;18.608;2023-08-06T14:59:54;0.00;;;0.00;;
11924;SDS011;6022;48.768;18.608;2023-08-06T15:02:29;0.63;;;0.10;;
11924;SDS011;6022;48.768;18.608;2023-08-06T15:05:02;0.40;;;0.20;;
11924;SDS011;6022;48.768;18.608;2023-08-06T15:07:30;0.20;;;0.20;;
11924;SDS011;6022;48.768;18.608;2023-08-06T15:10:01;0.20;;;0.20;;
11924;SDS011;6022;48.768;18.608;2023-08-06T15:12:50;0.20;;;0.20;;
11924;SDS011;6022;48.768;18.608;2023-08-06T15:15:26;0.00;;;0.00;;
11924;SDS011;6022;48.768;18.608;2023-08-06T15:17:53;0.30;;;0.30;;
11924;SDS011;6022;48.768;18.608;2023-08-06T15:20:22;0.10;;;0.10;;
11924;SDS011;6022;48.768;18.608;2023-08-06T15:22:51;0.57;;;0.57;;
11924;SDS011;6022;48.768;18.608;2023-08-06T15:25:19;0.00;;;0.00;;
11924;SDS011;6022;48.768;18.608;2023-08-06T15:27:46;0.77;;;0.57;;
11924;SDS011;6022;48.768;18.608;2023-08-06T15:30:17;0.70;;;0.70;;
11924;SDS011;6022;48.768;18.608;2023-08-06T15:32:48;0.77;;;0.20;;
11924;SDS011;6022;48.768;18.608;2023-08-06T15:35:16;0.20;;;0.20;;
11924;SDS011;6022;48.768;18.608;2023-08-06T15:37:43;0.20;;;0.20;;
11924;SDS011;6022;48.768;18.608;2023-08-06T15:40:12;0.53;;;0.40;;
11924;SDS011;6022;48.768;18.608;2023-08-06T15:50:38;1.87;;;1.57;;
11924;SDS011;6022;48.768;18.608;2023-08-06T15:53:06;4.73;;;2.30;;
11924;SDS011;6022;48.768;18.608;2023-08-06T15:55:34;1.73;;;1.40;;
11924;SDS011;6022;48.768;18.608;2023-08-06T15:58:04;1.03;;;0.63;;
11924;SDS011;6022;48.768;18.608;2023-08-06T16:00:32;0.30;;;0.30;;
11924;SDS011;6022;48.768;18.608;2023-08-06T16:03:00;0.43;;;0.20;;